createdAt,value
2019-01-27T00:04:31.828Z,9.00
2019-01-27T00:09:36.419Z,8.90
2019-01-27T00:14:40.353Z,8.90
2019-01-27T00:19:44.531Z,9.10
2019-01-27T00:24:48.803Z,8.80
2019-01-27T00:29:52.933Z,9.20
2019-01-27T00:34:57.011Z,9.00
2019-01-27T00:40:01.332Z,8.90
2019-01-27T00:45:06.188Z,9.10
2019-01-27T00:50:12.799Z,8.90
2019-01-27T00:55:18.876Z,9.00
2019-01-27T01:00:24.282Z,8.80
2019-01-27T01:05:28.197Z,8.90
2019-01-27T01:10:32.122Z,8.90
2019-01-27T01:15:36.353Z,9.00
2019-01-27T01:20:40.246Z,9.00
2019-01-27T01:25:44.311Z,8.90
2019-01-27T01:30:48.212Z,8.90
2019-01-27T01:35:52.178Z,8.90
2019-01-27T01:40:56.067Z,8.90
2019-01-27T01:45:59.891Z,9.00
2019-01-27T01:51:04.094Z,8.80
2019-01-27T01:56:08.319Z,8.70
2019-01-27T02:01:12.326Z,8.80
2019-01-27T02:06:16.142Z,8.80
2019-01-27T02:11:19.963Z,8.80
2019-01-27T02:16:23.798Z,8.90
2019-01-27T02:21:27.679Z,8.80
2019-01-27T02:26:31.775Z,8.80
2019-01-27T02:31:36.003Z,8.70
2019-01-27T02:36:40.149Z,8.70
2019-01-27T02:41:44.507Z,8.90
2019-01-27T02:46:48.667Z,8.80
2019-01-27T02:51:53.008Z,8.90
2019-01-27T02:56:57.414Z,8.90
2019-01-27T03:02:01.245Z,8.70
2019-01-27T03:07:15.266Z,8.60
2019-01-27T03:12:19.720Z,8.60
2019-01-27T03:17:23.902Z,8.90
2019-01-27T03:22:28.047Z,8.70
2019-01-27T03:27:32.257Z,8.60
2019-01-27T03:32:36.388Z,8.70
2019-01-27T03:37:40.628Z,8.70
2019-01-27T03:42:44.603Z,8.70
2019-01-27T03:47:48.835Z,8.60
2019-01-27T03:52:52.996Z,8.70
2019-01-27T03:57:57.467Z,8.60
2019-01-27T04:03:01.778Z,8.80
2019-01-27T04:08:05.996Z,8.60
2019-01-27T04:13:10.256Z,8.70
2019-01-27T04:18:14.091Z,8.70
2019-01-27T04:23:18.287Z,8.60
2019-01-27T04:28:22.211Z,8.60
2019-01-27T04:33:26.452Z,8.70
2019-01-27T04:38:30.627Z,8.60
2019-01-27T04:43:34.794Z,8.80
2019-01-27T04:48:38.953Z,8.60
2019-01-27T04:53:42.909Z,8.80
2019-01-27T04:58:46.827Z,8.70
2019-01-27T05:03:59.695Z,8.70
2019-01-27T05:09:05.772Z,8.60
2019-01-27T05:14:09.694Z,8.60
2019-01-27T05:19:13.531Z,8.60
2019-01-27T05:24:17.363Z,8.60
2019-01-27T05:29:21.451Z,8.70
2019-01-27T05:34:25.302Z,8.60
2019-01-27T05:39:29.163Z,8.60
2019-01-27T05:44:33.362Z,8.60
2019-01-27T05:49:37.511Z,8.60
2019-01-27T05:54:41.367Z,8.60
2019-01-27T05:59:45.607Z,8.80
2019-01-27T06:04:49.873Z,8.70
2019-01-27T06:09:54.214Z,8.60
2019-01-27T06:14:58.396Z,8.50
2019-01-27T06:20:02.567Z,8.60
2019-01-27T06:25:08.637Z,8.60
2019-01-27T06:30:18.410Z,8.70
2019-01-27T06:35:22.730Z,8.60
2019-01-27T06:40:26.706Z,8.80
2019-01-27T06:45:30.907Z,8.50
2019-01-27T06:50:34.819Z,8.60
2019-01-27T06:55:39.151Z,8.50
2019-01-27T07:01:05.448Z,8.60
2019-01-27T07:06:20.466Z,8.70
2019-01-27T07:11:46.271Z,8.60
2019-01-27T07:17:18.879Z,8.80
2019-01-27T07:22:42.123Z,8.30
2019-01-27T07:27:53.442Z,8.30
2019-01-27T07:33:31.549Z,8.20
2019-01-27T07:38:50.921Z,8.50
2019-01-27T07:44:26.154Z,8.60
2019-01-27T07:49:45.710Z,8.60
2019-01-27T07:55:01.277Z,8.60
2019-01-27T08:00:20.055Z,8.40
2019-01-27T08:05:29.339Z,8.40
2019-01-27T08:10:52.414Z,8.50
2019-01-27T08:16:04.359Z,8.60
2019-01-27T08:21:36.591Z,8.70
2019-01-27T08:27:05.619Z,8.50
2019-01-27T08:32:19.269Z,8.30
2019-01-27T08:37:38.320Z,8.60
2019-01-27T08:42:51.869Z,8.60
2019-01-27T08:47:56.323Z,8.50
2019-01-27T08:53:00.219Z,8.70
2019-01-27T08:58:04.935Z,8.60
2019-01-27T09:03:46.413Z,8.60
2019-01-27T09:08:58.199Z,8.60
2019-01-27T09:14:24.284Z,8.50
2019-01-27T09:19:44.731Z,8.60
2019-01-27T09:25:07.187Z,8.60
2019-01-27T09:30:40.310Z,8.70
2019-01-27T09:36:02.466Z,8.60
2019-01-27T09:41:31.550Z,8.60
2019-01-27T09:46:53.387Z,8.70
2019-01-27T09:52:06.303Z,8.60
2019-01-27T09:57:28.757Z,8.60
2019-01-27T10:02:57.983Z,8.60
2019-01-27T10:08:20.993Z,8.20
2019-01-27T10:13:32.860Z,8.70
2019-01-27T10:19:07.791Z,8.70
2019-01-27T10:24:29.762Z,9.00
2019-01-27T10:30:11.118Z,8.70
2019-01-27T10:35:46.599Z,8.80
2019-01-27T10:40:59.907Z,8.80
2019-01-27T10:46:31.982Z,9.00
2019-01-27T10:51:57.799Z,9.00
2019-01-27T10:57:21.023Z,8.90
2019-01-27T11:02:37.136Z,8.80
2019-01-27T11:07:51.574Z,8.90
2019-01-27T11:13:13.568Z,8.80
2019-01-27T11:18:26.864Z,9.00
2019-01-27T11:23:44.417Z,8.90
2019-01-27T11:29:25.847Z,9.20
2019-01-27T11:34:46.748Z,8.90
2019-01-27T11:40:09.082Z,9.10
2019-01-27T11:45:44.019Z,8.90
2019-01-27T11:50:58.504Z,9.10
2019-01-27T11:56:06.451Z,8.90
2019-01-27T12:01:10.717Z,9.20
2019-01-27T12:06:14.714Z,9.40
2019-01-27T12:11:18.849Z,9.10
2019-01-27T12:16:22.815Z,9.20
2019-01-27T12:21:26.907Z,9.10
2019-01-27T12:26:31.212Z,8.90
2019-01-27T12:31:35.031Z,9.40
2019-01-27T12:36:39.176Z,8.90
2019-01-27T12:41:44.805Z,9.40
2019-01-27T12:46:48.999Z,9.20
2019-01-27T12:51:52.903Z,9.00
2019-01-27T12:56:56.731Z,9.20
2019-01-27T13:02:00.639Z,9.40
2019-01-27T13:07:04.547Z,9.30
2019-01-27T13:12:08.543Z,9.10
2019-01-27T13:17:12.615Z,9.10
2019-01-27T13:22:16.687Z,10.50
2019-01-27T13:27:20.868Z,10.70
2019-01-27T13:32:24.706Z,10.10
2019-01-27T13:37:29.310Z,10.10
2019-01-27T13:42:33.494Z,9.80
2019-01-27T13:47:37.869Z,9.50
2019-01-27T13:52:42.307Z,9.60
2019-01-27T13:57:46.591Z,9.50
2019-01-27T14:02:50.691Z,9.50
2019-01-27T14:07:54.924Z,9.70
2019-01-27T14:12:59.237Z,9.50
2019-01-27T14:18:03.591Z,9.50
2019-01-27T14:23:07.514Z,9.80
2019-01-27T14:28:11.636Z,9.20
2019-01-27T14:33:15.928Z,9.20
2019-01-27T14:38:19.959Z,9.20
2019-01-27T14:43:24.219Z,9.40
2019-01-27T14:48:28.357Z,9.50
2019-01-27T14:53:32.399Z,9.20
2019-01-27T14:58:36.511Z,9.30
2019-01-27T15:03:40.836Z,9.50
2019-01-27T15:08:45.982Z,9.50
2019-01-27T15:13:50.344Z,9.30
2019-01-27T15:18:54.413Z,9.50
2019-01-27T15:23:59.762Z,9.20
2019-01-27T15:29:04.096Z,9.10
2019-01-27T15:34:08.047Z,9.20
2019-01-27T15:39:12.299Z,9.20
2019-01-27T15:44:16.427Z,9.20
2019-01-27T15:49:20.357Z,9.20
2019-01-27T15:54:24.191Z,9.20
2019-01-27T15:59:28.938Z,9.20
2019-01-27T16:04:33.115Z,9.20
2019-01-27T16:09:37.379Z,9.40
2019-01-27T16:14:41.542Z,9.20
2019-01-27T16:19:45.554Z,9.40
2019-01-27T16:24:49.763Z,9.20
2019-01-27T16:30:03.256Z,9.50
2019-01-27T16:35:14.362Z,9.10
2019-01-27T16:40:18.241Z,9.40
2019-01-27T16:45:22.754Z,9.40
2019-01-27T16:50:26.905Z,9.40
2019-01-27T16:55:31.300Z,9.20
2019-01-27T17:00:35.399Z,9.10
2019-01-27T17:05:39.896Z,9.00
2019-01-27T17:10:44.376Z,9.20
2019-01-27T17:15:48.711Z,9.20
2019-01-27T17:20:52.874Z,8.90
2019-01-27T17:25:56.756Z,9.10
2019-01-27T17:31:00.794Z,9.60
2019-01-27T17:36:05.008Z,9.30
2019-01-27T17:41:08.975Z,9.20
2019-01-27T17:46:12.782Z,9.20
2019-01-27T17:51:16.690Z,9.20
2019-01-27T17:56:21.133Z,9.00
2019-01-27T18:01:38.595Z,9.00
2019-01-27T18:06:56.870Z,8.90
2019-01-27T18:12:10.614Z,8.90
2019-01-27T18:17:14.580Z,8.90
2019-01-27T18:22:18.815Z,8.90
2019-01-27T18:27:23.015Z,8.80
2019-01-27T18:32:27.150Z,8.90
2019-01-27T18:37:31.628Z,8.90
2019-01-27T18:42:37.242Z,9.00
2019-01-27T18:47:41.361Z,8.90
2019-01-27T18:52:45.517Z,8.90
2019-01-27T18:57:57.151Z,8.90
2019-01-27T19:03:09.895Z,8.80
2019-01-27T19:08:39.056Z,8.80
2019-01-27T19:13:53.636Z,9.10
2019-01-27T19:19:04.095Z,8.80
2019-01-27T19:24:17.597Z,8.60
2019-01-27T19:29:50.187Z,8.90
2019-01-27T19:35:16.728Z,8.60
2019-01-27T19:40:29.714Z,8.70
2019-01-27T19:45:50.588Z,8.80
2019-01-27T19:51:13.678Z,8.60
2019-01-27T19:56:36.976Z,8.60
2019-01-27T20:01:58.973Z,8.60
2019-01-27T20:07:21.115Z,8.60
2019-01-27T20:12:42.644Z,8.50
2019-01-27T20:18:09.316Z,8.80
2019-01-27T20:23:48.112Z,8.60
2019-01-27T20:29:29.968Z,8.70
2019-01-27T20:35:01.287Z,8.60
2019-01-27T20:40:26.209Z,8.60
2019-01-27T20:45:52.131Z,8.60
2019-01-27T20:51:02.330Z,8.40
2019-01-27T20:56:28.486Z,8.50
2019-01-27T21:01:52.876Z,8.30
2019-01-27T21:07:28.358Z,8.30
2019-01-27T21:12:48.987Z,8.40
2019-01-27T21:18:07.296Z,8.50
2019-01-27T21:23:11.816Z,8.50
2019-01-27T21:28:16.018Z,8.30
2019-01-27T21:33:20.254Z,8.30
2019-01-27T21:38:24.811Z,8.40
2019-01-27T21:43:29.350Z,8.30
2019-01-27T21:48:33.972Z,8.40
2019-01-27T21:53:38.138Z,8.40
2019-01-27T21:58:42.346Z,8.30
2019-01-27T22:03:46.334Z,8.20
2019-01-27T22:08:50.762Z,8.20
2019-01-27T22:13:54.951Z,8.30
2019-01-27T22:18:59.067Z,8.40
2019-01-27T22:24:03.315Z,8.30
2019-01-27T22:29:07.577Z,8.30
2019-01-27T22:34:11.530Z,8.30
2019-01-27T22:39:15.707Z,8.40
2019-01-27T22:44:19.943Z,8.30
2019-01-27T22:49:24.363Z,8.30
2019-01-27T22:54:28.787Z,8.30
2019-01-27T22:59:33.044Z,8.30
2019-01-27T23:04:37.691Z,7.90
2019-01-27T23:09:41.872Z,8.10
2019-01-27T23:14:46.118Z,8.00
2019-01-27T23:19:49.983Z,8.00
2019-01-27T23:24:54.079Z,8.10
2019-01-27T23:29:58.247Z,8.00
2019-01-27T23:35:02.663Z,8.10
2019-01-27T23:40:07.274Z,8.00
2019-01-27T23:45:11.390Z,8.10
2019-01-27T23:50:15.651Z,8.00
2019-01-27T23:55:20.111Z,8.10
